createdAt,value
2022-08-23T00:00:34.148Z,91.50
2022-08-23T00:03:06.012Z,91.50
2022-08-23T00:05:40.285Z,91.70
2022-08-23T00:08:13.046Z,91.30
2022-08-23T00:10:44.968Z,91.30
2022-08-23T00:13:17.355Z,91.00
2022-08-23T00:15:49.230Z,90.80
2022-08-23T00:18:21.538Z,90.80
2022-08-23T00:20:53.436Z,90.70
2022-08-23T00:23:25.380Z,90.10
2022-08-23T00:25:57.263Z,90.10
2022-08-23T00:28:29.624Z,90.00
2022-08-23T00:31:01.525Z,90.00
2022-08-23T00:33:33.587Z,90.10
2022-08-23T00:36:05.478Z,90.20
2022-08-23T00:38:37.638Z,90.60
2022-08-23T00:41:09.685Z,90.80
2022-08-23T00:44:01.066Z,91.00
2022-08-23T00:47:23.884Z,91.20
2022-08-23T00:50:24.543Z,91.20
2022-08-23T00:53:07.591Z,91.30
2022-08-23T00:55:44.291Z,91.00
2022-08-23T00:58:19.671Z,90.60
2022-08-23T01:00:55.320Z,90.60
2022-08-23T01:03:30.454Z,90.50
2022-08-23T01:06:21.932Z,90.50
2022-08-23T01:09:04.730Z,90.80
2022-08-23T01:11:51.091Z,91.00
2022-08-23T01:14:38.723Z,91.00
2022-08-23T01:17:26.840Z,91.20
2022-08-23T01:20:04.710Z,91.20
2022-08-23T01:22:57.307Z,91.30
2022-08-23T01:25:32.627Z,91.40
2022-08-23T01:28:04.695Z,91.60
2022-08-23T01:30:37.031Z,91.80
2022-08-23T01:33:09.127Z,91.90
2022-08-23T01:35:46.683Z,92.10
2022-08-23T01:38:19.119Z,92.40
2022-08-23T01:40:52.124Z,92.50
2022-08-23T01:43:24.908Z,92.60
2022-08-23T01:45:58.692Z,92.70
2022-08-23T01:48:31.802Z,92.70
2022-08-23T01:51:04.084Z,92.80
2022-08-23T01:53:37.369Z,92.70
2022-08-23T01:56:09.792Z,92.80
2022-08-23T01:58:42.863Z,92.90
2022-08-23T02:01:19.022Z,93.10
2022-08-23T02:03:51.210Z,93.30
2022-08-23T02:06:36.160Z,93.40
2022-08-23T02:09:17.291Z,93.30
2022-08-23T02:11:49.964Z,93.20
2022-08-23T02:14:22.100Z,93.40
2022-08-23T02:17:04.384Z,93.60
2022-08-23T02:19:40.369Z,93.50
2022-08-23T02:22:13.720Z,93.40
2022-08-23T02:24:47.643Z,93.60
2022-08-23T02:27:19.804Z,93.30
2022-08-23T02:29:52.794Z,93.30
2022-08-23T02:32:26.931Z,93.20
2022-08-23T02:35:05.201Z,92.80
2022-08-23T02:37:39.266Z,92.50
2022-08-23T02:40:11.803Z,92.60
2022-08-23T02:42:43.804Z,92.60
2022-08-23T02:45:17.261Z,92.70
2022-08-23T02:47:52.706Z,92.50
2022-08-23T02:50:29.755Z,92.80
2022-08-23T02:53:01.749Z,92.80
2022-08-23T02:55:34.569Z,92.90
2022-08-23T02:58:07.024Z,92.90
2022-08-23T03:00:39.231Z,92.90
2022-08-23T03:03:12.428Z,92.70
2022-08-23T03:05:44.534Z,92.60
2022-08-23T03:08:17.188Z,92.60
2022-08-23T03:10:53.121Z,92.50
2022-08-23T03:13:25.051Z,92.70
2022-08-23T03:15:57.296Z,92.90
2022-08-23T03:18:29.969Z,93.20
2022-08-23T03:21:06.927Z,93.40
2022-08-23T03:23:39.851Z,93.10
2022-08-23T03:26:15.779Z,93.20
2022-08-23T03:28:48.127Z,93.20
2022-08-23T03:31:20.073Z,93.30
2022-08-23T03:34:18.037Z,93.20
2022-08-23T03:36:49.976Z,92.90
2022-08-23T03:39:22.169Z,92.60
2022-08-23T03:41:54.251Z,92.50
2022-08-23T03:44:26.242Z,92.80
2022-08-23T03:46:58.168Z,92.90
2022-08-23T03:49:31.785Z,93.10
2022-08-23T03:52:04.738Z,93.10
2022-08-23T03:54:38.912Z,93.10
2022-08-23T03:57:13.459Z,93.30
2022-08-23T03:59:45.409Z,93.50
2022-08-23T04:02:17.415Z,93.80
2022-08-23T04:04:49.337Z,93.70
2022-08-23T04:07:41.862Z,94.00
2022-08-23T04:10:15.586Z,93.60
2022-08-23T04:12:49.832Z,93.50
2022-08-23T04:15:24.214Z,93.40
2022-08-23T04:17:56.056Z,93.50
2022-08-23T04:20:29.664Z,93.40
2022-08-23T04:23:05.407Z,93.60
2022-08-23T04:25:45.347Z,94.00
2022-08-23T04:28:17.428Z,94.60
2022-08-23T04:30:51.149Z,94.20
2022-08-23T04:33:23.529Z,94.20
2022-08-23T04:35:55.498Z,93.80
2022-08-23T04:38:28.546Z,94.00
2022-08-23T04:41:23.688Z,93.60
2022-08-23T04:43:57.397Z,93.50
2022-08-23T04:46:31.119Z,93.70
2022-08-23T04:49:05.714Z,93.00
2022-08-23T04:51:38.638Z,93.60
2022-08-23T04:54:12.032Z,93.70
2022-08-23T04:57:26.357Z,93.10
2022-08-23T04:59:58.425Z,92.80
2022-08-23T05:02:30.453Z,92.50
2022-08-23T05:05:02.789Z,93.00
2022-08-23T05:07:42.461Z,92.60
2022-08-23T05:10:16.718Z,92.20
2022-08-23T05:12:55.809Z,91.60
2022-08-23T05:15:27.819Z,91.30
2022-08-23T05:18:08.588Z,91.10
2022-08-23T05:20:41.648Z,90.60
2022-08-23T05:23:13.591Z,90.40
2022-08-23T05:25:55.519Z,90.80
2022-08-23T05:28:35.046Z,90.70
2022-08-23T05:31:13.701Z,90.40
2022-08-23T05:33:50.436Z,90.50
2022-08-23T05:36:29.259Z,90.20
2022-08-23T05:39:01.529Z,90.10
2022-08-23T05:41:37.025Z,89.10
2022-08-23T05:44:13.101Z,89.00
2022-08-23T05:46:48.456Z,88.00
2022-08-23T05:49:39.191Z,87.00
2022-08-23T05:52:13.905Z,86.20
2022-08-23T05:54:48.207Z,85.00
2022-08-23T05:57:54.162Z,84.90
2022-08-23T06:00:31.612Z,84.70
2022-08-23T06:03:10.569Z,85.40
2022-08-23T06:05:42.710Z,85.40
2022-08-23T06:08:16.235Z,85.40
2022-08-23T06:10:48.052Z,84.20
2022-08-23T06:13:31.120Z,85.10
2022-08-23T06:16:14.813Z,85.20
2022-08-23T06:18:48.928Z,84.30
2022-08-23T06:21:40.633Z,82.80
2022-08-23T06:24:13.376Z,83.10
2022-08-23T06:26:54.970Z,82.90
2022-08-23T06:29:27.262Z,81.90
2022-08-23T06:32:19.179Z,81.50
2022-08-23T06:35:33.141Z,81.60
2022-08-23T06:38:08.558Z,81.70
2022-08-23T06:40:59.830Z,82.00
2022-08-23T06:43:32.614Z,81.90
2022-08-23T06:46:14.645Z,81.80
2022-08-23T06:48:49.771Z,81.60
2022-08-23T06:51:27.906Z,81.80
2022-08-23T06:54:05.489Z,81.50
2022-08-23T06:57:01.523Z,81.90
2022-08-23T06:59:38.834Z,81.50
2022-08-23T07:02:32.939Z,81.30
2022-08-23T07:05:43.051Z,81.10
2022-08-23T07:08:26.259Z,82.00
2022-08-23T07:10:58.613Z,82.50
2022-08-23T07:13:30.939Z,83.00
2022-08-23T07:16:03.959Z,84.10
2022-08-23T07:18:38.004Z,83.80
2022-08-23T07:21:09.957Z,84.00
2022-08-23T07:23:46.660Z,85.40
2022-08-23T07:26:19.499Z,84.10
2022-08-23T07:28:51.802Z,85.00
2022-08-23T07:31:31.149Z,86.40
2022-08-23T07:34:05.878Z,87.90
2022-08-23T07:36:42.191Z,88.20
2022-08-23T07:39:16.059Z,88.30
2022-08-23T07:41:48.192Z,89.50
2022-08-23T07:44:27.162Z,88.30
2022-08-23T07:46:59.862Z,88.10
2022-08-23T07:49:33.799Z,87.20
2022-08-23T07:52:08.051Z,89.60
2022-08-23T07:54:40.395Z,90.20
2022-08-23T07:57:31.245Z,90.60
2022-08-23T08:00:31.501Z,91.50
2022-08-23T08:03:26.366Z,91.20
2022-08-23T08:06:33.460Z,90.50
2022-08-23T08:09:06.060Z,90.30
2022-08-23T08:11:38.219Z,90.30
2022-08-23T08:14:11.249Z,90.90
2022-08-23T08:16:52.370Z,90.90
2022-08-23T08:19:43.911Z,90.40
2022-08-23T08:22:38.988Z,91.00
2022-08-23T08:25:19.944Z,90.70
2022-08-23T08:27:54.593Z,90.50
2022-08-23T08:30:27.094Z,90.80
2022-08-23T08:32:59.359Z,91.30
2022-08-23T08:35:31.810Z,91.20
2022-08-23T08:38:04.069Z,90.70
2022-08-23T08:40:40.375Z,90.80
2022-08-23T08:43:40.642Z,90.90
2022-08-23T08:46:28.401Z,90.60
2022-08-23T08:49:05.045Z,89.40
2022-08-23T08:51:42.609Z,88.80
2022-08-23T08:54:18.679Z,87.70
2022-08-23T08:56:58.203Z,89.50
2022-08-23T08:59:48.092Z,91.00
2022-08-23T09:02:32.671Z,91.90
2022-08-23T09:05:14.687Z,92.30
2022-08-23T09:08:04.906Z,91.40
2022-08-23T09:10:52.082Z,91.50
2022-08-23T09:13:36.128Z,91.10
2022-08-23T09:16:29.178Z,91.00
2022-08-23T09:19:02.722Z,91.00
2022-08-23T09:21:55.992Z,90.60
2022-08-23T09:24:29.943Z,90.00
2022-08-23T09:27:09.016Z,90.30
2022-08-23T09:29:57.146Z,90.50
2022-08-23T09:32:36.320Z,90.70
2022-08-23T09:35:21.103Z,91.10
2022-08-23T09:38:25.030Z,91.10
2022-08-23T09:41:19.345Z,91.40
2022-08-23T09:43:55.847Z,90.90
2022-08-23T09:46:33.436Z,90.00
2022-08-23T09:49:28.069Z,88.30
2022-08-23T09:52:22.256Z,87.50
2022-08-23T09:55:09.671Z,90.00
2022-08-23T09:57:48.257Z,88.80
2022-08-23T10:00:33.988Z,88.10
2022-08-23T10:03:39.739Z,88.60
2022-08-23T10:06:32.577Z,89.30
2022-08-23T10:09:09.548Z,87.90
2022-08-23T10:11:46.504Z,86.30
2022-08-23T10:14:20.973Z,88.30
2022-08-23T10:17:14.982Z,87.40
2022-08-23T10:19:57.178Z,86.50
2022-08-23T10:22:37.264Z,86.10
2022-08-23T10:25:33.451Z,86.20
2022-08-23T10:28:51.393Z,84.30
2022-08-23T10:31:29.168Z,86.10
2022-08-23T10:34:41.584Z,86.60
2022-08-23T10:37:23.488Z,86.80
2022-08-23T10:40:07.584Z,85.70
2022-08-23T10:42:47.216Z,85.40
2022-08-23T10:45:30.503Z,85.10
2022-08-23T10:48:28.446Z,85.40
2022-08-23T10:51:31.639Z,85.40
2022-08-23T10:54:16.174Z,87.30
2022-08-23T10:56:48.679Z,86.90
2022-08-23T10:59:25.189Z,85.90
2022-08-23T11:02:23.941Z,87.10
2022-08-23T11:05:19.960Z,85.70
2022-08-23T11:08:09.349Z,86.20
2022-08-23T11:10:56.147Z,87.00
2022-08-23T11:13:35.069Z,85.90
2022-08-23T11:16:29.204Z,86.40
2022-08-23T11:19:02.544Z,86.50
2022-08-23T11:21:45.906Z,87.70
2022-08-23T11:24:31.569Z,86.90
2022-08-23T11:27:07.370Z,87.00
2022-08-23T11:29:47.557Z,86.30
2022-08-23T11:32:42.610Z,85.80
2022-08-23T11:35:42.972Z,87.10
2022-08-23T11:38:47.478Z,87.30
2022-08-23T11:41:20.152Z,87.50
2022-08-23T11:44:04.866Z,89.10
2022-08-23T11:46:48.697Z,88.80
2022-08-23T11:49:28.606Z,88.90
2022-08-23T11:52:35.248Z,89.50
2022-08-23T11:55:35.204Z,88.90
2022-08-23T11:58:13.991Z,87.10
2022-08-23T12:01:12.504Z,87.00
2022-08-23T12:04:14.755Z,87.60
2022-08-23T12:06:51.505Z,87.10
2022-08-23T12:09:23.486Z,87.20
2022-08-23T12:11:55.334Z,86.60
2022-08-23T12:14:45.381Z,85.60
2022-08-23T12:17:19.312Z,85.20
2022-08-23T12:20:11.305Z,86.40
2022-08-23T12:23:16.046Z,85.30
2022-08-23T12:26:05.155Z,86.00
2022-08-23T12:28:46.304Z,85.20
2022-08-23T12:31:31.965Z,84.40
2022-08-23T12:34:27.206Z,83.70
2022-08-23T12:37:24.972Z,84.60
2022-08-23T12:40:02.281Z,83.80
2022-08-23T12:42:37.056Z,84.90
2022-08-23T12:45:20.789Z,84.00
2022-08-23T12:48:02.663Z,83.40
2022-08-23T12:50:44.502Z,83.10
2022-08-23T12:53:32.808Z,81.90
2022-08-23T12:56:11.191Z,82.80
2022-08-23T12:58:52.193Z,81.80
2022-08-23T13:01:33.547Z,82.10
2022-08-23T13:04:10.826Z,83.40
2022-08-23T13:06:56.582Z,84.10
2022-08-23T13:09:40.539Z,83.80
2022-08-23T13:12:13.393Z,84.60
2022-08-23T13:14:51.099Z,83.70
2022-08-23T13:17:25.893Z,84.00
2022-08-23T13:20:06.911Z,85.30
2022-08-23T13:22:54.724Z,85.20
2022-08-23T13:25:32.859Z,85.20
2022-08-23T13:28:28.970Z,84.90
2022-08-23T13:31:06.094Z,83.50
2022-08-23T13:33:41.097Z,83.50
2022-08-23T13:36:16.246Z,82.90
2022-08-23T13:38:48.793Z,82.40
2022-08-23T13:41:38.356Z,82.40
2022-08-23T13:44:12.777Z,82.70
2022-08-23T13:46:48.604Z,83.10
2022-08-23T13:49:24.677Z,82.90
2022-08-23T13:52:18.333Z,83.20
2022-08-23T13:54:53.104Z,82.10
2022-08-23T13:57:29.598Z,82.00
2022-08-23T14:00:02.396Z,80.90
2022-08-23T14:02:41.403Z,81.50
2022-08-23T14:05:13.510Z,81.90
2022-08-23T14:07:47.737Z,83.60
2022-08-23T14:10:23.248Z,83.30
2022-08-23T14:12:55.599Z,82.90
2022-08-23T14:18:19.962Z,83.10
2022-08-23T14:20:52.130Z,82.30
2022-08-23T14:23:24.045Z,81.80
2022-08-23T14:25:58.952Z,81.80
2022-08-23T14:28:31.281Z,82.20
2022-08-23T14:31:03.277Z,82.00
2022-08-23T14:33:38.820Z,82.10
2022-08-23T14:36:12.637Z,81.80
2022-08-23T14:38:44.698Z,81.50
2022-08-23T14:41:25.503Z,81.20
2022-08-23T14:43:57.396Z,81.10
2022-08-23T14:46:29.467Z,81.40
2022-08-23T14:49:01.412Z,81.90
2022-08-23T14:51:36.161Z,82.00
2022-08-23T14:54:22.213Z,82.80
2022-08-23T14:56:54.499Z,82.20
2022-08-23T14:59:26.613Z,82.90
2022-08-23T15:01:59.610Z,83.70
2022-08-23T15:04:34.773Z,82.70
2022-08-23T15:07:22.460Z,82.30
2022-08-23T15:09:54.873Z,82.80
2022-08-23T15:15:22.465Z,83.60
2022-08-23T15:17:57.220Z,82.80
2022-08-23T15:20:36.151Z,81.60
2022-08-23T15:23:09.202Z,81.70
2022-08-23T15:25:43.669Z,82.10
2022-08-23T15:28:18.857Z,82.30
2022-08-23T15:30:51.610Z,82.60
2022-08-23T15:33:26.946Z,82.80
2022-08-23T15:36:01.914Z,83.00
2022-08-23T15:38:37.120Z,83.00
2022-08-23T15:41:09.297Z,83.40
2022-08-23T15:43:42.947Z,84.10
2022-08-23T15:46:23.106Z,84.10
2022-08-23T15:48:59.494Z,83.70
2022-08-23T15:51:31.863Z,84.60
2022-08-23T15:54:04.258Z,84.70
2022-08-23T15:56:44.307Z,83.80
2022-08-23T15:59:18.882Z,83.50
2022-08-23T16:01:50.937Z,84.00
2022-08-23T16:04:23.043Z,83.80
2022-08-23T16:06:55.141Z,83.60
2022-08-23T16:09:30.692Z,83.60
2022-08-23T16:12:04.671Z,83.50
2022-08-23T16:14:38.561Z,83.60
2022-08-23T16:17:10.638Z,83.20
2022-08-23T16:19:44.221Z,83.60
2022-08-23T16:22:16.282Z,83.00
2022-08-23T16:24:48.338Z,83.30
2022-08-23T16:27:20.394Z,83.60
2022-08-23T16:29:52.462Z,83.90
2022-08-23T16:32:24.531Z,83.70
2022-08-23T16:34:56.450Z,84.00
2022-08-23T16:37:28.415Z,83.90
2022-08-23T16:40:00.378Z,84.20
2022-08-23T16:42:32.320Z,84.50
2022-08-23T16:45:05.112Z,84.30
2022-08-23T16:47:41.685Z,84.50
2022-08-23T16:50:14.790Z,84.50
2022-08-23T16:52:46.807Z,84.40
2022-08-23T16:55:19.009Z,84.90
2022-08-23T16:57:51.248Z,84.90
2022-08-23T17:00:23.245Z,85.40
2022-08-23T17:02:55.219Z,85.80
2022-08-23T17:05:29.362Z,85.50
2022-08-23T17:08:01.889Z,86.20
2022-08-23T17:10:33.918Z,85.90
2022-08-23T17:13:07.452Z,86.30
2022-08-23T17:15:39.987Z,86.80
2022-08-23T17:18:11.945Z,86.70
2022-08-23T17:20:44.042Z,86.60
2022-08-23T17:23:16.667Z,87.10
2022-08-23T17:25:50.265Z,87.10
2022-08-23T17:28:22.290Z,87.30
2022-08-23T17:30:54.629Z,87.20
2022-08-23T17:33:27.831Z,86.90
2022-08-23T17:35:59.776Z,87.60
2022-08-23T17:38:33.685Z,88.10
2022-08-23T17:41:05.703Z,88.40
2022-08-23T17:43:37.571Z,88.30
2022-08-23T17:46:09.572Z,88.30
2022-08-23T17:48:41.483Z,89.20
2022-08-23T17:51:13.412Z,88.60
2022-08-23T17:53:46.767Z,89.00
2022-08-23T17:56:18.776Z,89.60
2022-08-23T17:58:51.413Z,89.60
2022-08-23T18:01:23.543Z,90.00
2022-08-23T18:03:55.661Z,90.20
2022-08-23T18:06:28.117Z,90.30
2022-08-23T18:09:02.052Z,90.20
2022-08-23T18:11:35.135Z,90.60
2022-08-23T18:14:07.013Z,90.80
2022-08-23T18:16:41.985Z,90.70
2022-08-23T18:19:17.612Z,90.80
2022-08-23T18:21:49.732Z,91.20
2022-08-23T18:24:21.889Z,91.50
2022-08-23T18:27:12.483Z,91.80
2022-08-23T18:29:44.306Z,92.00
2022-08-23T18:32:19.496Z,92.20
2022-08-23T18:34:51.409Z,92.40
2022-08-23T18:37:23.356Z,92.50
2022-08-23T18:39:55.257Z,92.60
2022-08-23T18:42:27.387Z,92.80
2022-08-23T18:44:59.544Z,92.80
2022-08-23T18:47:31.593Z,92.90
2022-08-23T18:50:13.813Z,93.10
2022-08-23T18:52:45.940Z,93.10
2022-08-23T18:55:20.148Z,93.30
2022-08-23T18:57:52.064Z,93.50
2022-08-23T19:00:23.986Z,93.60
2022-08-23T19:02:55.932Z,93.70
2022-08-23T19:05:28.978Z,94.00
2022-08-23T19:08:14.586Z,94.20
2022-08-23T19:10:47.444Z,94.40
2022-08-23T19:13:19.795Z,94.50
2022-08-23T19:15:52.426Z,94.50
2022-08-23T19:18:24.586Z,94.50
2022-08-23T19:20:56.506Z,94.50
2022-08-23T19:23:28.515Z,94.40
2022-08-23T19:26:01.655Z,94.40
2022-08-23T19:28:33.707Z,94.50
2022-08-23T19:31:05.856Z,94.40
2022-08-23T19:33:38.074Z,94.60
2022-08-23T19:36:19.161Z,94.90
2022-08-23T19:39:01.583Z,95.30
2022-08-23T19:41:33.870Z,95.70
2022-08-23T19:44:07.862Z,95.70
2022-08-23T19:46:42.080Z,95.70
2022-08-23T19:49:16.129Z,95.80
2022-08-23T19:51:48.048Z,95.70
2022-08-23T19:54:20.442Z,95.80
2022-08-23T19:56:58.557Z,96.00
2022-08-23T19:59:38.602Z,96.10
2022-08-23T20:02:13.100Z,95.80
2022-08-23T20:04:45.143Z,95.90
2022-08-23T20:07:17.496Z,96.10
2022-08-23T20:09:49.555Z,96.30
2022-08-23T20:12:21.523Z,96.00
2022-08-23T20:14:53.897Z,96.00
2022-08-23T20:17:26.974Z,96.10
2022-08-23T20:19:58.981Z,96.10
2022-08-23T20:22:49.415Z,96.10
2022-08-23T20:25:21.408Z,96.30
2022-08-23T20:27:53.791Z,96.40
2022-08-23T20:30:26.013Z,96.50
2022-08-23T20:32:57.862Z,96.70
2022-08-23T20:35:29.899Z,96.50
2022-08-23T20:38:03.141Z,96.80
2022-08-23T20:40:35.446Z,96.70
2022-08-23T20:43:08.098Z,96.90
2022-08-23T20:45:40.185Z,97.00
2022-08-23T20:48:15.003Z,97.20
2022-08-23T20:50:46.990Z,97.50
2022-08-23T20:53:18.903Z,97.50
2022-08-23T20:55:50.818Z,97.80
2022-08-23T20:58:23.673Z,98.10
2022-08-23T21:00:55.809Z,98.30
2022-08-23T21:03:31.724Z,98.20
2022-08-23T21:06:35.796Z,98.30
2022-08-23T21:09:08.795Z,98.30
2022-08-23T21:11:40.901Z,98.50
2022-08-23T21:14:16.389Z,98.60
2022-08-23T21:16:49.239Z,98.70
2022-08-23T21:19:21.235Z,98.70
2022-08-23T21:21:53.125Z,98.90
2022-08-23T21:24:26.187Z,98.90
2022-08-23T21:26:58.171Z,99.20
2022-08-23T21:29:30.379Z,99.50
2022-08-23T21:32:02.440Z,99.90
2022-08-23T21:34:34.701Z,99.70
2022-08-23T21:37:06.882Z,99.60
2022-08-23T21:39:39.247Z,99.50
2022-08-23T21:42:15.351Z,99.50
2022-08-23T21:44:47.470Z,99.70
2022-08-23T21:47:20.748Z,99.90
2022-08-23T21:49:53.307Z,99.90
2022-08-23T21:52:25.246Z,99.90
2022-08-23T21:54:57.140Z,99.90
2022-08-23T21:57:29.155Z,99.90
2022-08-23T22:00:01.220Z,99.90
2022-08-23T22:02:33.190Z,99.90
2022-08-23T22:05:05.845Z,99.90
2022-08-23T22:07:38.654Z,99.90
2022-08-23T22:10:10.989Z,99.90
2022-08-23T22:12:43.294Z,99.90
2022-08-23T22:15:16.339Z,99.90
2022-08-23T22:17:48.215Z,99.90
2022-08-23T22:20:20.798Z,99.90
2022-08-23T22:22:52.704Z,99.90
2022-08-23T22:25:24.599Z,99.90
2022-08-23T22:27:56.473Z,99.90
2022-08-23T22:30:28.351Z,99.90
2022-08-23T22:33:00.237Z,99.90
2022-08-23T22:35:36.396Z,99.90
2022-08-23T22:38:14.166Z,99.90
2022-08-23T22:40:51.128Z,99.90
2022-08-23T22:43:23.416Z,99.90
2022-08-23T22:46:00.337Z,99.90
2022-08-23T22:48:35.149Z,99.90
2022-08-23T22:51:15.648Z,99.90
2022-08-23T22:53:51.316Z,99.90
2022-08-23T22:56:37.589Z,99.90
2022-08-23T22:59:10.579Z,99.90
2022-08-23T23:01:45.956Z,99.90
2022-08-23T23:04:22.526Z,99.90
2022-08-23T23:06:56.132Z,99.90
2022-08-23T23:09:28.636Z,99.90
2022-08-23T23:12:00.637Z,99.90
2022-08-23T23:14:32.517Z,99.90
2022-08-23T23:17:04.611Z,99.90
2022-08-23T23:19:55.064Z,99.90
2022-08-23T23:22:26.998Z,99.90
2022-08-23T23:25:02.190Z,99.90
2022-08-23T23:27:34.078Z,99.90
2022-08-23T23:30:06.488Z,99.90
2022-08-23T23:32:38.534Z,99.90
2022-08-23T23:35:14.089Z,99.90
2022-08-23T23:37:49.494Z,99.90
2022-08-23T23:40:22.647Z,99.90
2022-08-23T23:42:56.003Z,99.90
2022-08-23T23:45:28.665Z,99.90
2022-08-23T23:48:00.666Z,99.90
2022-08-23T23:50:35.221Z,99.90
2022-08-23T23:53:07.087Z,99.90
2022-08-23T23:55:38.967Z,99.90
2022-08-23T23:58:10.895Z,99.90
